Whetstone, United Kingdom
Current Conditions -  °F | °C
As of 3:50 AM on Sunday 26 Oct 2014 (Local Time) from EGWU Reporting Station
Few Clouds Few Clouds  
Wind Chill: 11°   Ceiling: Unl
Heat Index: 11°   Visibility: 6mi
Dew Point:   Wind: 8mph
Humidity: 76%   Direction: 220°SW
Pressure: 30.12"   Gusts: NA
Location:  51.63°N, 0.16°W
Report Text: EGWU 260250Z AUTO 22007KT 9999 // FEW038/// 11/07 Q1020
Loading
Personal Weather Stations






























Interactive Weather Map
Tropical Storm Tracking
New forecast layout! Learn more

10-Day Weather Forecast

Advertisements
Track Severe Weather on mobile